createdAt,value
2023-01-10T00:01:20.024Z,96469.41
2023-01-10T00:03:47.004Z,96474.31
2023-01-10T00:06:14.545Z,96472.81
2023-01-10T00:08:41.547Z,96474.13
2023-01-10T00:11:27.109Z,96489.22
2023-01-10T00:13:54.955Z,96495.25
2023-01-10T00:16:21.985Z,96506.75
2023-01-10T00:18:49.165Z,96503.97
2023-01-10T00:21:16.129Z,96508.59
2023-01-10T00:23:43.484Z,96510.06
2023-01-10T00:26:10.912Z,96525.63
2023-01-10T00:28:39.305Z,96522.63
2023-01-10T00:31:06.927Z,96532.34
2023-01-10T00:33:34.624Z,96535.13
2023-01-10T00:36:01.714Z,96539.56
2023-01-10T00:38:28.948Z,96539.63
2023-01-10T00:40:55.897Z,96542.00
2023-01-10T00:43:41.468Z,96556.28
2023-01-10T00:46:09.135Z,96555.59
2023-01-10T00:48:36.263Z,96556.31
2023-01-10T00:51:03.662Z,96553.47
2023-01-10T00:53:31.051Z,96558.41
2023-01-10T00:55:57.986Z,96558.84
2023-01-10T00:58:24.999Z,96568.59
2023-01-10T01:00:52.223Z,96577.41
2023-01-10T01:03:20.323Z,96577.41
2023-01-10T01:05:47.466Z,96579.19
2023-01-10T01:08:14.903Z,96585.66
2023-01-10T01:10:41.864Z,96597.38
2023-01-10T01:13:11.117Z,96604.34
2023-01-10T01:15:38.164Z,96608.25
2023-01-10T01:18:05.672Z,96598.34
2023-01-10T01:20:32.761Z,96608.47
2023-01-10T01:23:00.855Z,96616.03
2023-01-10T01:25:28.036Z,96611.19
2023-01-10T01:27:55.015Z,96615.75
2023-01-10T01:30:21.988Z,96631.63
2023-01-10T01:32:49.336Z,96637.31
2023-01-10T01:35:16.578Z,96652.78
2023-01-10T01:37:43.735Z,96649.16
2023-01-10T01:40:14.911Z,96652.31
2023-01-10T01:42:42.297Z,96658.13
2023-01-10T01:45:09.206Z,96658.13
2023-01-10T01:47:49.327Z,96660.25
2023-01-10T01:50:54.717Z,96667.69
2023-01-10T01:53:30.094Z,96669.78
2023-01-10T01:56:00.249Z,96672.19
2023-01-10T01:58:49.668Z,96673.34
2023-01-10T02:01:17.097Z,96673.94
2023-01-10T02:03:46.146Z,96673.41
2023-01-10T02:06:13.209Z,96683.91
2023-01-10T02:08:41.068Z,96679.22
2023-01-10T02:11:11.626Z,96686.50
2023-01-10T02:13:43.095Z,96691.00
2023-01-10T02:16:10.246Z,96686.34
2023-01-10T02:18:37.507Z,96688.16
2023-01-10T02:21:18.173Z,96700.53
2023-01-10T02:23:57.198Z,96694.13
2023-01-10T02:26:45.930Z,96700.75
2023-01-10T02:29:28.898Z,96704.56
2023-01-10T02:32:14.794Z,96705.22
2023-01-10T02:35:00.030Z,96711.09
2023-01-10T02:37:41.973Z,96708.44
2023-01-10T02:40:34.792Z,96703.84
2023-01-10T02:43:29.416Z,96708.53
2023-01-10T02:46:03.235Z,96710.31
2023-01-10T02:48:30.323Z,96722.44
2023-01-10T02:51:00.325Z,96717.69
2023-01-10T02:53:29.920Z,96738.75
2023-01-10T02:56:47.805Z,96743.44
2023-01-10T02:59:17.664Z,96740.22
2023-01-10T03:02:07.245Z,96751.88
2023-01-10T03:04:58.670Z,96755.81
2023-01-10T03:07:35.948Z,96751.06
2023-01-10T03:10:06.901Z,96753.53
2023-01-10T03:12:46.696Z,96752.97
2023-01-10T03:15:15.860Z,96758.41
2023-01-10T03:17:43.009Z,96762.84
2023-01-10T03:20:10.592Z,96758.50
2023-01-10T03:22:38.543Z,96761.84
2023-01-10T03:25:07.235Z,96779.47
2023-01-10T03:27:52.466Z,96784.44
2023-01-10T03:30:28.339Z,96794.81
2023-01-10T03:32:55.721Z,96798.63
2023-01-10T03:35:22.754Z,96799.78
2023-01-10T03:38:21.512Z,96809.84
2023-01-10T03:41:10.259Z,96811.97
2023-01-10T03:44:15.667Z,96818.94
2023-01-10T03:46:47.358Z,96826.94
2023-01-10T03:49:14.314Z,96836.19
2023-01-10T03:51:41.559Z,96832.59
2023-01-10T03:54:08.504Z,96844.44
2023-01-10T03:56:46.408Z,96863.50
2023-01-10T03:59:13.343Z,96857.63
2023-01-10T04:01:40.340Z,96851.66
2023-01-10T04:04:07.394Z,96867.16
2023-01-10T04:06:34.343Z,96866.00
2023-01-10T04:09:01.320Z,96862.25
2023-01-10T04:11:28.393Z,96867.13
2023-01-10T04:13:55.475Z,96873.94
2023-01-10T04:16:22.484Z,96877.28
2023-01-10T04:18:49.439Z,96878.41
2023-01-10T04:21:16.417Z,96882.75
2023-01-10T04:23:43.359Z,96885.63
2023-01-10T04:26:10.301Z,96892.84
2023-01-10T04:28:37.389Z,96879.78
2023-01-10T04:31:04.592Z,96883.81
2023-01-10T04:33:32.439Z,96890.59
2023-01-10T04:35:59.422Z,96902.09
2023-01-10T04:38:26.433Z,96905.28
2023-01-10T04:40:56.501Z,96907.34
2023-01-10T04:43:24.461Z,96911.50
2023-01-10T04:45:51.600Z,96915.28
2023-01-10T04:48:19.521Z,96929.50
2023-01-10T04:50:50.988Z,96930.06
2023-01-10T04:53:18.331Z,96928.97
2023-01-10T04:55:45.369Z,96936.06
2023-01-10T04:58:13.002Z,96939.09
2023-01-10T05:00:40.225Z,96950.59
2023-01-10T05:03:07.282Z,96952.63
2023-01-10T05:05:34.486Z,96964.81
2023-01-10T05:08:01.597Z,96964.38
2023-01-10T05:10:28.627Z,96967.22
2023-01-10T05:12:55.513Z,96968.69
2023-01-10T05:15:23.340Z,96977.44
2023-01-10T05:17:51.379Z,96993.38
2023-01-10T05:20:18.473Z,96986.75
2023-01-10T05:22:45.960Z,96997.47
2023-01-10T05:25:13.004Z,96999.25
2023-01-10T05:27:42.287Z,97000.84
2023-01-10T05:30:12.955Z,97003.84
2023-01-10T05:32:39.951Z,97009.41
2023-01-10T05:35:07.170Z,97016.53
2023-01-10T05:37:34.138Z,97009.69
2023-01-10T05:40:01.054Z,97024.78
2023-01-10T05:42:28.030Z,97017.53
2023-01-10T05:44:54.972Z,97031.47
2023-01-10T05:47:21.947Z,97027.78
2023-01-10T05:49:48.918Z,97035.97
2023-01-10T05:52:15.855Z,97045.38
2023-01-10T05:54:42.908Z,97048.44
2023-01-10T05:57:09.932Z,97056.84
2023-01-10T05:59:36.877Z,97061.38
2023-01-10T06:02:03.874Z,97057.94
2023-01-10T06:04:30.839Z,97069.41
2023-01-10T06:06:57.819Z,97077.03
2023-01-10T06:09:24.767Z,97092.03
2023-01-10T06:11:51.714Z,97090.53
2023-01-10T06:14:19.635Z,97095.69
2023-01-10T06:16:47.148Z,97098.47
2023-01-10T06:19:14.308Z,97101.09
2023-01-10T06:21:41.362Z,97107.38
2023-01-10T06:24:08.754Z,97106.69
2023-01-10T06:26:35.753Z,97118.53
2023-01-10T06:29:02.743Z,97125.59
2023-01-10T06:31:29.767Z,97140.31
2023-01-10T06:33:56.777Z,97143.78
2023-01-10T06:36:23.685Z,97151.38
2023-01-10T06:38:50.686Z,97153.78
2023-01-10T06:41:17.628Z,97163.00
2023-01-10T06:43:45.551Z,97166.09
2023-01-10T06:46:13.656Z,97172.47
2023-01-10T06:48:40.684Z,97177.50
2023-01-10T06:51:07.717Z,97185.59
2023-01-10T06:53:34.654Z,97186.69
2023-01-10T06:56:03.000Z,97194.06
2023-01-10T06:58:29.916Z,97200.38
2023-01-10T07:00:56.993Z,97202.09
2023-01-10T07:03:24.146Z,97212.81
2023-01-10T07:05:52.133Z,97221.75
2023-01-10T07:08:19.026Z,97228.00
2023-01-10T07:10:46.010Z,97235.19
2023-01-10T07:13:12.957Z,97241.88
2023-01-10T07:15:39.966Z,97246.19
2023-01-10T07:18:06.908Z,97258.78
2023-01-10T07:20:33.828Z,97266.63
2023-01-10T07:23:00.858Z,97267.56
2023-01-10T07:25:28.750Z,97276.13
2023-01-10T07:27:55.772Z,97270.84
2023-01-10T07:30:25.222Z,97286.97
2023-01-10T07:32:56.385Z,97287.91
2023-01-10T07:35:23.744Z,97307.25
2023-01-10T07:37:50.786Z,97302.56
2023-01-10T07:40:17.986Z,97309.31
2023-01-10T07:42:44.967Z,97313.63
2023-01-10T07:45:11.994Z,97327.75
2023-01-10T07:47:38.997Z,97320.38
2023-01-10T07:50:06.539Z,97319.81
2023-01-10T07:52:34.800Z,97331.44
2023-01-10T07:55:01.856Z,97341.56
2023-01-10T07:57:28.942Z,97336.81
2023-01-10T07:59:55.887Z,97356.22
2023-01-10T08:02:23.007Z,97353.44
2023-01-10T08:04:50.034Z,97353.13
2023-01-10T08:07:17.024Z,97356.88
2023-01-10T08:09:44.041Z,97368.25
2023-01-10T08:12:11.095Z,97368.53
2023-01-10T08:14:38.064Z,97372.94
2023-01-10T08:17:05.135Z,97372.66
2023-01-10T08:19:32.048Z,97388.59
2023-01-10T08:21:59.287Z,97390.81
2023-01-10T08:24:26.463Z,97384.94
2023-01-10T08:26:53.422Z,97391.19
2023-01-10T08:29:20.331Z,97399.81
2023-01-10T08:31:47.319Z,97413.94
2023-01-10T08:34:14.631Z,97419.09
2023-01-10T08:36:41.642Z,97419.09
2023-01-10T08:39:08.648Z,97417.88
2023-01-10T08:41:35.601Z,97429.41
2023-01-10T08:44:02.548Z,97429.22
2023-01-10T08:46:29.584Z,97438.69
2023-01-10T08:48:56.649Z,97434.44
2023-01-10T08:51:23.591Z,97435.75
2023-01-10T08:53:50.592Z,97435.97
2023-01-10T08:56:17.588Z,97439.88
2023-01-10T08:58:44.775Z,97434.13
2023-01-10T09:01:13.014Z,97442.03
2023-01-10T09:03:40.170Z,97445.34
2023-01-10T09:06:08.364Z,97453.13
2023-01-10T09:08:35.866Z,97460.13
2023-01-10T09:11:03.226Z,97463.09
2023-01-10T09:13:30.260Z,97470.78
2023-01-10T09:15:57.549Z,97461.34
2023-01-10T09:18:24.816Z,97476.31
2023-01-10T09:20:52.103Z,97472.44
2023-01-10T09:23:20.739Z,97469.66
2023-01-10T09:25:48.507Z,97472.75
2023-01-10T09:28:15.669Z,97485.97
2023-01-10T09:30:43.027Z,97477.94
2023-01-10T09:33:10.262Z,97488.09
2023-01-10T09:35:38.596Z,97498.81
2023-01-10T09:38:06.734Z,97498.06
2023-01-10T09:40:41.757Z,97520.53
2023-01-10T09:43:20.926Z,97521.22
2023-01-10T09:45:53.827Z,97512.31
2023-01-10T09:48:33.099Z,97528.06
2023-01-10T09:51:10.143Z,97525.56
2023-01-10T09:53:37.275Z,97528.03
2023-01-10T09:56:06.278Z,97536.69
2023-01-10T09:58:33.534Z,97539.69
2023-01-10T10:01:03.630Z,97540.28
2023-01-10T10:03:38.116Z,97537.44
2023-01-10T10:06:12.032Z,97530.97
2023-01-10T10:08:44.358Z,97542.66
2023-01-10T10:11:26.580Z,97532.41
2023-01-10T10:14:13.223Z,97532.81
2023-01-10T10:16:43.772Z,97546.88
2023-01-10T10:19:23.122Z,97531.22
2023-01-10T10:22:03.174Z,97531.63
2023-01-10T10:24:42.821Z,97534.06
2023-01-10T10:27:19.003Z,97535.06
2023-01-10T10:30:04.910Z,97535.56
2023-01-10T10:32:54.106Z,97539.97
2023-01-10T10:35:30.853Z,97537.84
2023-01-10T10:38:02.597Z,97534.03
2023-01-10T10:40:33.024Z,97531.59
2023-01-10T10:43:02.033Z,97533.81
2023-01-10T10:45:33.918Z,97540.06
2023-01-10T10:48:07.465Z,97530.53
2023-01-10T10:50:35.123Z,97520.34
2023-01-10T10:53:02.919Z,97522.91
2023-01-10T10:55:32.154Z,97528.25
2023-01-10T10:58:00.705Z,97529.25
2023-01-10T11:00:28.550Z,97522.41
2023-01-10T11:03:30.072Z,97532.06
2023-01-10T11:05:57.079Z,97534.50
2023-01-10T11:08:24.409Z,97546.06
2023-01-10T11:10:58.605Z,97549.94
2023-01-10T11:13:34.781Z,97543.03
2023-01-10T11:16:02.671Z,97552.91
2023-01-10T11:18:31.024Z,97551.88
2023-01-10T11:21:03.933Z,97554.84
2023-01-10T11:23:43.039Z,97546.78
2023-01-10T11:26:23.382Z,97560.16
2023-01-10T11:29:02.602Z,97550.44
2023-01-10T11:31:29.656Z,97558.69
2023-01-10T11:33:57.190Z,97558.41
2023-01-10T11:36:24.117Z,97546.19
2023-01-10T11:39:01.669Z,97542.47
2023-01-10T11:41:31.829Z,97546.53
2023-01-10T11:44:15.213Z,97546.56
2023-01-10T11:46:47.529Z,97548.28
2023-01-10T11:49:25.142Z,97552.69
2023-01-10T11:51:52.513Z,97542.84
2023-01-10T11:54:26.592Z,97546.88
2023-01-10T11:56:56.948Z,97548.03
2023-01-10T11:59:23.946Z,97549.22
2023-01-10T12:02:05.482Z,97550.41
2023-01-10T12:04:34.580Z,97552.69
2023-01-10T12:07:09.154Z,97552.34
2023-01-10T12:09:55.304Z,97550.91
2023-01-10T12:12:23.386Z,97550.53
2023-01-10T12:14:50.727Z,97553.53
2023-01-10T12:17:29.103Z,97551.00
2023-01-10T12:20:00.347Z,97556.53
2023-01-10T12:22:31.516Z,97556.22
2023-01-10T12:24:59.269Z,97551.97
2023-01-10T12:27:26.278Z,97551.56
2023-01-10T12:30:15.821Z,97547.22
2023-01-10T12:32:49.083Z,97560.56
2023-01-10T12:35:25.277Z,97558.50
2023-01-10T12:38:00.787Z,97558.72
2023-01-10T12:40:51.634Z,97551.22
2023-01-10T12:43:40.361Z,97563.09
2023-01-10T12:46:50.107Z,97565.78
2023-01-10T12:49:21.904Z,97568.28
2023-01-10T12:51:49.583Z,97571.47
2023-01-10T12:54:19.132Z,97577.19
2023-01-10T12:56:46.051Z,97578.06
2023-01-10T12:59:38.116Z,97585.53
2023-01-10T13:02:21.453Z,97581.78
2023-01-10T13:04:52.298Z,97579.06
2023-01-10T13:07:19.249Z,97578.69
2023-01-10T13:09:46.264Z,97582.56
2023-01-10T13:12:34.356Z,97580.56
2023-01-10T13:15:21.703Z,97580.84
2023-01-10T13:17:52.361Z,97593.72
2023-01-10T13:20:26.623Z,97585.75
2023-01-10T13:22:58.469Z,97585.69
2023-01-10T13:25:33.034Z,97588.81
2023-01-10T13:28:19.547Z,97592.81
2023-01-10T13:31:01.452Z,97591.28
2023-01-10T13:33:33.488Z,97591.41
2023-01-10T13:36:12.148Z,97596.75
2023-01-10T13:39:09.516Z,97592.66
2023-01-10T13:42:36.606Z,97595.38
2023-01-10T13:45:03.660Z,97595.41
2023-01-10T13:47:40.848Z,97595.81
2023-01-10T13:50:23.187Z,97592.69
2023-01-10T13:52:53.666Z,97593.75
2023-01-10T13:55:26.439Z,97585.69
2023-01-10T13:58:02.313Z,97586.59
2023-01-10T14:00:54.590Z,97586.00
2023-01-10T14:03:40.475Z,97589.00
2023-01-10T14:06:28.044Z,97582.72
2023-01-10T14:09:14.236Z,97582.13
2023-01-10T14:11:44.217Z,97578.72
2023-01-10T14:14:20.396Z,97583.97
2023-01-10T14:16:49.160Z,97583.97
2023-01-10T14:19:29.027Z,97575.88
2023-01-10T14:21:56.994Z,97572.47
2023-01-10T14:24:44.295Z,97570.94
2023-01-10T14:27:15.822Z,97567.72
2023-01-10T14:29:56.614Z,97568.63
2023-01-10T14:32:43.976Z,97567.88
2023-01-10T14:35:20.802Z,97571.31
2023-01-10T14:37:55.619Z,97568.84
2023-01-10T14:40:25.152Z,97567.75
2023-01-10T14:42:52.286Z,97568.41
2023-01-10T14:45:40.459Z,97574.84
2023-01-10T14:48:27.594Z,97568.06
2023-01-10T14:51:18.333Z,97565.94
2023-01-10T14:53:45.445Z,97563.88
2023-01-10T14:56:20.337Z,97573.88
2023-01-10T14:58:47.569Z,97571.22
2023-01-10T15:01:19.466Z,97580.03
2023-01-10T15:03:46.708Z,97570.47
2023-01-10T15:06:13.993Z,97577.59
2023-01-10T15:08:41.106Z,97573.91
2023-01-10T15:11:10.341Z,97577.19
2023-01-10T15:13:41.943Z,97572.84
2023-01-10T15:16:16.437Z,97575.47
2023-01-10T15:18:46.931Z,97577.88
2023-01-10T15:21:14.682Z,97569.03
2023-01-10T15:23:46.535Z,97576.13
2023-01-10T15:26:25.699Z,97568.59
2023-01-10T15:29:13.415Z,97577.63
2023-01-10T15:31:41.887Z,97560.75
2023-01-10T15:34:10.581Z,97573.66
2023-01-10T15:36:37.578Z,97577.06
2023-01-10T15:39:04.717Z,97575.69
2023-01-10T15:41:33.003Z,97575.81
2023-01-10T15:44:34.989Z,97574.41
2023-01-10T15:47:02.073Z,97572.88
2023-01-10T15:49:29.590Z,97574.69
2023-01-10T15:51:58.128Z,97566.28
2023-01-10T15:54:25.552Z,97581.44
2023-01-10T15:57:16.622Z,97575.66
2023-01-10T15:59:47.345Z,97571.97
2023-01-10T16:02:32.430Z,97565.97
2023-01-10T16:05:07.979Z,97569.44
2023-01-10T16:07:35.690Z,97567.31
2023-01-10T16:10:07.931Z,97570.81
2023-01-10T16:12:57.977Z,97554.81
2023-01-10T16:15:30.204Z,97550.72
2023-01-10T16:17:57.221Z,97548.59
2023-01-10T16:20:32.695Z,97551.34
2023-01-10T16:23:01.042Z,97553.06
2023-01-10T16:25:49.668Z,97550.00
2023-01-10T16:28:17.415Z,97555.69
2023-01-10T16:30:47.376Z,97551.63
2023-01-10T16:33:21.246Z,97554.69
2023-01-10T16:35:48.630Z,97551.72
2023-01-10T16:38:17.711Z,97556.94
2023-01-10T16:40:52.139Z,97554.88
2023-01-10T16:43:20.083Z,97565.50
2023-01-10T16:46:19.227Z,97557.63
2023-01-10T16:48:47.786Z,97558.47
2023-01-10T16:51:32.477Z,97554.44
2023-01-10T16:53:59.951Z,97546.97
2023-01-10T16:56:28.353Z,97541.78
2023-01-10T16:58:55.594Z,97541.63
2023-01-10T17:01:28.762Z,97535.19
2023-01-10T17:03:55.865Z,97520.44
2023-01-10T17:06:23.263Z,97533.44
2023-01-10T17:08:50.908Z,97530.31
2023-01-10T17:11:27.676Z,97526.16
2023-01-10T17:13:54.771Z,97531.78
2023-01-10T17:16:21.989Z,97527.31
2023-01-10T17:18:49.016Z,97521.41
2023-01-10T17:21:17.862Z,97533.41
2023-01-10T17:23:45.571Z,97526.53
2023-01-10T17:26:15.129Z,97527.06
2023-01-10T17:28:42.283Z,97535.72
2023-01-10T17:31:09.321Z,97541.81
2023-01-10T17:33:36.384Z,97536.38
2023-01-10T17:36:03.581Z,97529.94
2023-01-10T17:38:30.670Z,97540.97
2023-01-10T17:41:02.114Z,97541.28
2023-01-10T17:43:30.150Z,97539.31
2023-01-10T17:45:58.985Z,97538.91
2023-01-10T17:48:26.198Z,97540.84
2023-01-10T17:50:58.060Z,97546.28
2023-01-10T17:53:25.217Z,97540.41
2023-01-10T17:55:52.325Z,97541.06
2023-01-10T17:58:20.164Z,97538.69
2023-01-10T18:00:48.800Z,97545.03
2023-01-10T18:03:16.296Z,97540.75
2023-01-10T18:05:56.816Z,97540.00
2023-01-10T18:08:24.075Z,97534.84
2023-01-10T18:10:51.308Z,97534.59
2023-01-10T18:13:18.833Z,97533.81
2023-01-10T18:15:47.990Z,97531.09
2023-01-10T18:18:15.369Z,97535.94
2023-01-10T18:20:45.127Z,97527.56
2023-01-10T18:23:22.609Z,97525.84
2023-01-10T18:25:57.544Z,97524.59
2023-01-10T18:28:39.528Z,97526.31
2023-01-10T18:31:09.676Z,97525.25
2023-01-10T18:33:36.857Z,97530.38
2023-01-10T18:36:06.919Z,97529.47
2023-01-10T18:38:35.286Z,97532.91
2023-01-10T18:41:02.524Z,97520.72
2023-01-10T18:43:29.986Z,97526.28
2023-01-10T18:46:04.458Z,97536.81
2023-01-10T18:48:31.544Z,97524.31
2023-01-10T18:50:59.082Z,97523.59
2023-01-10T18:53:26.368Z,97521.72
2023-01-10T18:56:01.239Z,97515.34
2023-01-10T18:58:30.751Z,97521.50
2023-01-10T19:00:57.978Z,97521.13
2023-01-10T19:03:25.222Z,97523.13
2023-01-10T19:05:52.215Z,97526.28
2023-01-10T19:08:19.161Z,97521.13
2023-01-10T19:11:11.399Z,97511.13
2023-01-10T19:13:33.427Z,97510.84
2023-01-10T19:16:13.127Z,97517.25
2023-01-10T19:18:40.443Z,97512.34
2023-01-10T19:21:12.019Z,97502.41
2023-01-10T19:23:39.326Z,97508.47
2023-01-10T19:26:06.322Z,97504.81
2023-01-10T19:28:33.312Z,97508.88
2023-01-10T19:31:04.444Z,97505.78
2023-01-10T19:33:34.316Z,97512.25
2023-01-10T19:36:05.770Z,97497.22
2023-01-10T19:38:32.680Z,97501.28
2023-01-10T19:40:59.691Z,97489.44
2023-01-10T19:43:26.661Z,97490.66
2023-01-10T19:45:54.755Z,97490.06
2023-01-10T19:48:22.401Z,97489.41
2023-01-10T19:50:49.571Z,97486.69
2023-01-10T19:53:16.583Z,97483.84
2023-01-10T19:55:43.612Z,97476.78
2023-01-10T19:58:10.621Z,97483.78
2023-01-10T20:00:37.663Z,97489.50
2023-01-10T20:03:05.299Z,97477.44
2023-01-10T20:05:35.047Z,97474.88
2023-01-10T20:08:03.501Z,97469.44
2023-01-10T20:10:30.559Z,97459.03
2023-01-10T20:12:57.557Z,97464.16
2023-01-10T20:15:24.747Z,97457.94
2023-01-10T20:17:51.744Z,97466.34
2023-01-10T20:20:20.770Z,97464.13
2023-01-10T20:22:48.037Z,97466.13
2023-01-10T20:25:15.167Z,97468.19
2023-01-10T20:27:42.141Z,97461.84
2023-01-10T20:30:14.230Z,97461.34
2023-01-10T20:32:41.797Z,97461.03
2023-01-10T20:35:09.199Z,97457.25
2023-01-10T20:37:36.157Z,97468.13
2023-01-10T20:40:04.554Z,97463.22
2023-01-10T20:42:32.830Z,97465.53
2023-01-10T20:44:59.896Z,97466.81
2023-01-10T20:47:28.169Z,97464.22
2023-01-10T20:49:55.147Z,97463.00
2023-01-10T20:52:22.167Z,97454.53
2023-01-10T20:54:49.449Z,97447.53
2023-01-10T20:57:16.381Z,97440.09
2023-01-10T20:59:43.570Z,97440.09
2023-01-10T21:02:11.087Z,97434.69
2023-01-10T21:04:38.289Z,97445.72
2023-01-10T21:07:07.065Z,97435.19
2023-01-10T21:09:34.221Z,97435.44
2023-01-10T21:12:13.816Z,97441.75
2023-01-10T21:14:45.209Z,97429.91
2023-01-10T21:17:12.910Z,97428.00
2023-01-10T21:19:39.899Z,97425.88
2023-01-10T21:22:06.902Z,97420.97
2023-01-10T21:24:33.892Z,97425.56
2023-01-10T21:27:00.885Z,97430.22
2023-01-10T21:29:27.891Z,97424.50
2023-01-10T21:31:54.980Z,97429.59
2023-01-10T21:34:22.165Z,97429.75
2023-01-10T21:36:49.103Z,97419.25
2023-01-10T21:39:18.106Z,97420.03
2023-01-10T21:42:03.793Z,97418.00
2023-01-10T21:44:31.186Z,97430.06
2023-01-10T21:46:58.504Z,97416.69
2023-01-10T21:49:25.856Z,97421.13
2023-01-10T21:51:52.905Z,97428.81
2023-01-10T21:54:19.876Z,97424.19
2023-01-10T21:56:46.949Z,97414.78
2023-01-10T21:59:13.959Z,97414.78
2023-01-10T22:01:40.958Z,97412.56
2023-01-10T22:04:08.157Z,97417.66
2023-01-10T22:06:35.195Z,97408.47
2023-01-10T22:09:02.315Z,97401.13
2023-01-10T22:11:29.357Z,97399.53
2023-01-10T22:13:57.371Z,97399.25
2023-01-10T22:16:24.741Z,97395.56
2023-01-10T22:18:52.380Z,97395.03
2023-01-10T22:21:19.851Z,97386.03
2023-01-10T22:23:46.999Z,97395.47
2023-01-10T22:26:15.127Z,97399.09
2023-01-10T22:28:42.293Z,97396.25
2023-01-10T22:31:09.329Z,97395.69
2023-01-10T22:33:37.051Z,97394.34
2023-01-10T22:36:14.569Z,97406.28
2023-01-10T22:38:41.853Z,97389.41
2023-01-10T22:41:13.102Z,97388.28
2023-01-10T22:43:40.215Z,97384.94
2023-01-10T22:46:07.482Z,97387.41
2023-01-10T22:48:38.210Z,97387.56
2023-01-10T22:51:05.791Z,97372.44
2023-01-10T22:53:33.138Z,97378.94
2023-01-10T22:56:04.790Z,97380.25
2023-01-10T22:58:31.924Z,97375.50
2023-01-10T23:00:58.966Z,97376.69
2023-01-10T23:03:26.058Z,97377.50
2023-01-10T23:05:56.669Z,97367.16
2023-01-10T23:08:24.540Z,97356.91
2023-01-10T23:10:51.501Z,97361.09
2023-01-10T23:13:18.457Z,97360.16
2023-01-10T23:15:45.383Z,97358.28
2023-01-10T23:18:12.460Z,97353.69
2023-01-10T23:20:39.583Z,97355.78
2023-01-10T23:23:08.706Z,97359.53
2023-01-10T23:25:36.347Z,97345.38
2023-01-10T23:28:03.587Z,97343.31
2023-01-10T23:30:30.715Z,97337.50
2023-01-10T23:32:57.716Z,97345.38
2023-01-10T23:35:24.679Z,97335.97
2023-01-10T23:37:52.374Z,97334.84
2023-01-10T23:40:19.629Z,97343.78
2023-01-10T23:42:46.596Z,97326.88
2023-01-10T23:45:13.657Z,97322.16
2023-01-10T23:47:40.882Z,97329.56
2023-01-10T23:50:08.588Z,97324.34
2023-01-10T23:52:35.623Z,97332.03
2023-01-10T23:55:02.625Z,97329.84
2023-01-10T23:57:30.820Z,97324.19
2023-01-10T23:59:59.982Z,97317.94
